Time;durP1;ratioP1;P1;durP2;ratioP2;P2;SDS_P1;SDS_P2;PMS_P1;PMS_P2;Temp;Humidity;BMP_temperature;BMP_pressure;BME280_temperature;BME280_humidity;BME280_pressure;Samples;Min_cycle;Max_cycle;Signal;HPM_P1;HPM_P2
2022/12/14 00:01:32;;;;;;;19.13;9.37;;;;;;;;;;5000671;28;20691;-74
2022/12/14 00:03:57;;;;;;;18.97;9.57;;;;;;;;;;5000370;28;20246;-75
2022/12/14 00:06:24;;;;;;;19.67;9.67;;;;;;;;;;5001726;28;20192;-75
2022/12/14 00:08:50;;;;;;;18.40;10.03;;;;;;;;;;5008735;28;20176;-75
2022/12/14 00:11:15;;;;;;;21.33;9.87;;;;;;;;;;4992541;28;20254;-75
2022/12/14 00:13:41;;;;;;;13.03;8.33;;;;;;;;;;5015733;28;20719;-75
2022/12/14 00:16:08;;;;;;;17.47;10.20;;;;;;;;;;4993874;28;20176;-75
2022/12/14 00:18:33;;;;;;;16.33;9.23;;;;;;;;;;4993354;28;20555;-75
2022/12/14 00:21:06;;;;;;;15.97;9.17;;;;;;;;;;4995230;28;20184;-75
2022/12/14 00:23:31;;;;;;;14.40;8.27;;;;;;;;;;4991126;28;20204;-75
2022/12/14 00:25:57;;;;;;;18.20;9.10;;;;;;;;;;4996952;28;20267;-75
2022/12/14 00:28:22;;;;;;;15.10;9.03;;;;;;;;;;4997048;28;20183;-75
2022/12/14 00:30:47;;;;;;;14.00;8.77;;;;;;;;;;4989585;28;20637;-75
2022/12/14 00:33:12;;;;;;;14.17;8.50;;;;;;;;;;4998826;28;20194;-75
2022/12/14 00:35:37;;;;;;;15.77;9.00;;;;;;;;;;5002913;28;20172;-75
2022/12/14 00:38:03;;;;;;;16.57;9.00;;;;;;;;;;4998528;28;20211;-75
2022/12/14 00:40:28;;;;;;;18.07;8.90;;;;;;;;;;5003004;28;20679;-75
2022/12/14 00:42:53;;;;;;;16.33;9.60;;;;;;;;;;4991425;28;20195;-75
2022/12/14 00:45:18;;;;;;;17.13;8.70;;;;;;;;;;4992560;28;20199;-75
2022/12/14 00:47:43;;;;;;;14.17;8.37;;;;;;;;;;4987714;28;20200;-75
2022/12/14 00:50:08;;;;;;;15.40;8.43;;;;;;;;;;5000120;28;20201;-75
2022/12/14 00:52:34;;;;;;;16.17;8.57;;;;;;;;;;4992785;28;20661;-75
2022/12/14 00:54:59;;;;;;;12.40;7.60;;;;;;;;;;4997601;28;20183;-75
2022/12/14 00:57:24;;;;;;;14.60;8.10;;;;;;;;;;4996361;28;20200;-75
2022/12/14 00:59:49;;;;;;;12.97;8.13;;;;;;;;;;4994324;28;20171;-75
2022/12/14 01:02:15;;;;;;;16.20;9.10;;;;;;;;;;4982438;28;20184;-75
2022/12/14 01:04:40;;;;;;;12.90;8.77;;;;;;;;;;4991731;28;20225;-75
2022/12/14 01:07:05;;;;;;;16.27;8.53;;;;;;;;;;4992093;28;20237;-75
2022/12/14 01:09:30;;;;;;;11.73;7.50;;;;;;;;;;4996121;28;20171;-76
2022/12/14 01:11:55;;;;;;;15.33;7.90;;;;;;;;;;4991166;28;20199;-75
2022/12/14 01:14:21;;;;;;;13.40;7.83;;;;;;;;;;5022578;28;20187;-74
2022/12/14 01:16:47;;;;;;;13.60;8.20;;;;;;;;;;4988331;28;20583;-75
2022/12/14 01:19:12;;;;;;;14.27;8.50;;;;;;;;;;4988506;28;20179;-75
2022/12/14 01:21:38;;;;;;;15.07;8.50;;;;;;;;;;4987261;28;20198;-75
2022/12/14 01:24:04;;;;;;;14.00;8.27;;;;;;;;;;4991828;28;20290;-75
2022/12/14 01:26:32;;;;;;;13.13;7.33;;;;;;;;;;4993237;28;20214;-75
2022/12/14 01:28:58;;;;;;;14.73;8.43;;;;;;;;;;4990957;28;20175;-75
2022/12/14 01:31:25;;;;;;;16.50;7.57;;;;;;;;;;5020704;28;20179;-75
2022/12/14 01:33:50;;;;;;;15.93;7.17;;;;;;;;;;4986208;28;20673;-74
2022/12/14 01:36:19;;;;;;;16.50;7.93;;;;;;;;;;5025955;28;20191;-74
2022/12/14 01:38:45;;;;;;;14.23;8.23;;;;;;;;;;4986690;28;20188;-74
2022/12/14 01:41:30;;;;;;;11.63;7.13;;;;;;;;;;4994652;28;20233;-74
2022/12/14 01:43:57;;;;;;;15.20;7.67;;;;;;;;;;4998298;28;20294;-74
2022/12/14 01:46:22;;;;;;;15.93;8.23;;;;;;;;;;4993101;28;20226;-74
2022/12/14 01:48:49;;;;;;;13.37;6.97;;;;;;;;;;4991451;28;20164;-74
2022/12/14 01:51:14;;;;;;;13.40;7.13;;;;;;;;;;4991141;28;20605;-74
2022/12/14 01:53:39;;;;;;;13.20;7.03;;;;;;;;;;4994999;28;20183;-74
2022/12/14 01:56:05;;;;;;;12.40;6.87;;;;;;;;;;4994166;28;20180;-74
2022/12/14 01:58:32;;;;;;;14.60;7.13;;;;;;;;;;4999078;28;20191;-74
2022/12/14 02:00:59;;;;;;;11.87;7.13;;;;;;;;;;4995172;28;20234;-74
2022/12/14 02:03:36;;;;;;;11.27;6.50;;;;;;;;;;4992425;28;20203;-74
2022/12/14 02:06:03;;;;;;;13.23;6.77;;;;;;;;;;4995855;28;20249;-74
2022/12/14 02:08:29;;;;;;;14.17;7.37;;;;;;;;;;4994674;28;20187;-74
2022/12/14 02:10:55;;;;;;;16.27;7.47;;;;;;;;;;5022112;28;20237;-74
2022/12/14 02:13:28;;;;;;;10.43;5.80;;;;;;;;;;4999038;28;20220;-75
2022/12/14 02:15:53;;;;;;;13.17;7.03;;;;;;;;;;4988092;28;20175;-74
2022/12/14 02:18:22;;;;;;;12.40;6.90;;;;;;;;;;5001912;28;20175;-74
2022/12/14 02:21:06;;;;;;;13.77;6.87;;;;;;;;;;4993322;28;20591;-74
2022/12/14 02:24:04;;;;;;;11.70;6.60;;;;;;;;;;4997189;28;20209;-74
2022/12/14 02:26:29;;;;;;;9.90;5.97;;;;;;;;;;4974500;28;20235;-74
2022/12/14 02:28:57;;;;;;;12.10;5.80;;;;;;;;;;4992368;28;20229;-74
2022/12/14 02:31:31;;;;;;;9.80;6.03;;;;;;;;;;5000072;28;20179;-74
2022/12/14 02:34:00;;;;;;;12.23;7.07;;;;;;;;;;4995410;28;20698;-74
2022/12/14 02:36:38;;;;;;;9.23;5.50;;;;;;;;;;4993881;28;20578;-75
2022/12/14 02:39:22;;;;;;;9.60;5.43;;;;;;;;;;4993815;28;20569;-74
2022/12/14 02:42:05;;;;;;;13.20;5.87;;;;;;;;;;4989275;28;20183;-75
2022/12/14 02:44:35;;;;;;;9.43;6.00;;;;;;;;;;4988853;28;20218;-74
2022/12/14 02:47:20;;;;;;;12.77;6.80;;;;;;;;;;4987993;28;20215;-74
2022/12/14 02:49:58;;;;;;;11.97;6.33;;;;;;;;;;4986365;28;20274;-74
2022/12/14 02:52:29;;;;;;;12.40;6.20;;;;;;;;;;4996622;28;20203;-74
2022/12/14 02:54:57;;;;;;;11.23;6.37;;;;;;;;;;4994691;28;20203;-74
2022/12/14 02:57:22;;;;;;;10.80;6.70;;;;;;;;;;5026041;28;20235;-74
2022/12/14 02:59:51;;;;;;;12.57;6.93;;;;;;;;;;4995360;28;20322;-74
2022/12/14 03:02:17;;;;;;;13.77;6.63;;;;;;;;;;4996151;28;20598;-74
2022/12/14 03:04:46;;;;;;;13.53;7.17;;;;;;;;;;4994864;28;20184;-74
2022/12/14 03:07:31;;;;;;;12.17;7.60;;;;;;;;;;4998068;28;20192;-74
2022/12/14 03:10:00;;;;;;;13.33;6.73;;;;;;;;;;4991944;28;20176;-74
2022/12/14 03:12:25;;;;;;;14.00;7.47;;;;;;;;;;5024835;28;20176;-74
2022/12/14 03:14:51;;;;;;;15.20;7.57;;;;;;;;;;4999484;28;20711;-74
2022/12/14 03:17:19;;;;;;;12.30;6.40;;;;;;;;;;4996934;28;20627;-74
2022/12/14 03:19:47;;;;;;;14.03;7.47;;;;;;;;;;4997523;28;20649;-74
2022/12/14 03:22:19;;;;;;;12.23;6.80;;;;;;;;;;4990074;28;20582;-74
2022/12/14 03:24:50;;;;;;;14.63;6.77;;;;;;;;;;4994114;28;20263;-74
2022/12/14 03:27:18;;;;;;;11.47;6.57;;;;;;;;;;5030541;22;20263;-70
2022/12/14 03:29:47;;;;;;;14.13;7.53;;;;;;;;;;5024346;28;20178;-71
2022/12/14 03:32:15;;;;;;;12.60;7.13;;;;;;;;;;5030529;28;20608;-70
2022/12/14 03:34:44;;;;;;;13.80;7.53;;;;;;;;;;5031300;28;20659;-71
2022/12/14 03:37:10;;;;;;;12.07;7.27;;;;;;;;;;5032682;28;20336;-71
2022/12/14 03:39:36;;;;;;;12.50;7.50;;;;;;;;;;5031784;28;20273;-71
2022/12/14 03:42:08;;;;;;;12.83;7.50;;;;;;;;;;5032184;28;20193;-70
2022/12/14 03:44:39;;;;;;;14.43;7.93;;;;;;;;;;5034021;28;20207;-70
2022/12/14 03:47:04;;;;;;;13.77;7.13;;;;;;;;;;5030888;28;20201;-70
2022/12/14 03:49:48;;;;;;;13.43;7.77;;;;;;;;;;5031228;28;20178;-70
2022/12/14 03:52:23;;;;;;;13.97;7.27;;;;;;;;;;5034742;28;20253;-70
2022/12/14 03:54:52;;;;;;;13.53;7.57;;;;;;;;;;5033207;28;20269;-70
2022/12/14 03:57:20;;;;;;;13.23;7.17;;;;;;;;;;5033775;28;20205;-70
2022/12/14 03:59:49;;;;;;;12.53;7.60;;;;;;;;;;5033986;28;20183;-70
2022/12/14 04:02:17;;;;;;;14.57;8.37;;;;;;;;;;5032351;28;20178;-70
2022/12/14 04:04:47;;;;;;;13.07;7.90;;;;;;;;;;5033437;28;20171;-70
2022/12/14 04:07:12;;;;;;;12.03;7.53;;;;;;;;;;5031755;28;20226;-71
2022/12/14 04:09:40;;;;;;;12.30;7.50;;;;;;;;;;5031224;28;20202;-71
2022/12/14 04:20:29;;;;;;;13.03;8.00;;;;;;;;;;5031422;28;20184;-71
2022/12/14 04:23:00;;;;;;;12.10;7.33;;;;;;;;;;5029387;28;20198;-70
2022/12/14 04:31:11;;;;;;;14.47;8.77;;;;;;;;;;5032400;28;20252;-71
2022/12/14 04:33:47;;;;;;;14.60;7.50;;;;;;;;;;5031444;28;20190;-71
2022/12/14 04:36:29;;;;;;;17.03;8.50;;;;;;;;;;5029746;28;20193;-71
2022/12/14 04:39:01;;;;;;;13.87;7.87;;;;;;;;;;5031814;28;20185;-71
2022/12/14 04:41:29;;;;;;;13.70;8.70;;;;;;;;;;5032343;28;20659;-71
2022/12/14 04:43:57;;;;;;;17.47;8.43;;;;;;;;;;5031246;28;20205;-71
2022/12/14 04:46:35;;;;;;;13.43;8.80;;;;;;;;;;5030848;28;20228;-71
2022/12/14 04:49:02;;;;;;;15.67;8.07;;;;;;;;;;5037754;28;20178;-71
2022/12/14 04:51:45;;;;;;;14.07;8.70;;;;;;;;;;5031865;28;20289;-71
2022/12/14 04:54:16;;;;;;;17.13;8.97;;;;;;;;;;5032905;28;20257;-71
2022/12/14 04:56:58;;;;;;;16.67;8.73;;;;;;;;;;5033340;28;20265;-71
2022/12/14 04:59:24;;;;;;;13.27;9.37;;;;;;;;;;5031538;28;20188;-71
2022/12/14 05:01:49;;;;;;;13.77;8.17;;;;;;;;;;5046248;28;20667;-71
2022/12/14 05:04:24;;;;;;;16.77;8.47;;;;;;;;;;5035316;28;20212;-71
2022/12/14 05:06:52;;;;;;;16.03;9.10;;;;;;;;;;5035954;28;20209;-71
2022/12/14 05:09:19;;;;;;;14.07;7.93;;;;;;;;;;5029254;28;20182;-71
2022/12/14 05:11:51;;;;;;;15.73;9.00;;;;;;;;;;5036689;28;20550;-71
2022/12/14 05:14:19;;;;;;;17.77;8.60;;;;;;;;;;5033561;28;20190;-71
2022/12/14 05:16:45;;;;;;;16.97;7.93;;;;;;;;;;5018323;28;20205;-71
2022/12/14 05:19:10;;;;;;;16.27;8.70;;;;;;;;;;5031249;28;20272;-71
2022/12/14 05:21:48;;;;;;;14.63;8.67;;;;;;;;;;5023451;28;20214;-71
2022/12/14 05:24:14;;;;;;;16.23;9.00;;;;;;;;;;5029327;28;20219;-71
2022/12/14 05:26:39;;;;;;;14.67;9.57;;;;;;;;;;5050516;28;20178;-71
2022/12/14 05:29:04;;;;;;;16.57;8.73;;;;;;;;;;5014036;28;20607;-71
2022/12/14 05:31:29;;;;;;;17.43;9.60;;;;;;;;;;5027830;28;20177;-71
2022/12/14 05:33:55;;;;;;;16.00;8.70;;;;;;;;;;5031293;28;20209;-71
2022/12/14 05:36:20;;;;;;;14.30;8.63;;;;;;;;;;5028799;28;20182;-71
2022/12/14 05:38:45;;;;;;;16.33;8.30;;;;;;;;;;5028901;28;20202;-71
2022/12/14 05:41:10;;;;;;;14.73;8.17;;;;;;;;;;5028969;28;20186;-71
2022/12/14 05:43:36;;;;;;;12.97;8.17;;;;;;;;;;5025016;28;20190;-71
2022/12/14 05:46:02;;;;;;;15.77;8.17;;;;;;;;;;5021872;28;20644;-71
2022/12/14 05:48:27;;;;;;;15.27;8.50;;;;;;;;;;5028972;28;20217;-71
2022/12/14 05:50:53;;;;;;;16.87;9.20;;;;;;;;;;5028899;28;20232;-71
2022/12/14 05:53:18;;;;;;;15.47;8.87;;;;;;;;;;5029698;28;20186;-71
2022/12/14 05:55:49;;;;;;;14.50;8.87;;;;;;;;;;5029640;28;20178;-71
2022/12/14 05:58:15;;;;;;;17.07;8.93;;;;;;;;;;5032283;28;20229;-72
2022/12/14 06:00:40;;;;;;;14.90;8.40;;;;;;;;;;5030990;28;20185;-72
2022/12/14 06:03:05;;;;;;;16.93;8.97;;;;;;;;;;5032062;28;20276;-71
2022/12/14 06:05:31;;;;;;;15.77;8.57;;;;;;;;;;5027972;28;20663;-71
2022/12/14 06:07:56;;;;;;;16.63;9.33;;;;;;;;;;5030239;28;20773;-71
2022/12/14 06:10:21;;;;;;;14.77;8.70;;;;;;;;;;5030207;28;20249;-71
2022/12/14 06:12:46;;;;;;;14.00;8.30;;;;;;;;;;5025526;28;20189;-71
2022/12/14 06:15:12;;;;;;;17.83;8.77;;;;;;;;;;5030140;28;20182;-71
2022/12/14 06:17:41;;;;;;;17.33;9.63;;;;;;;;;;5030226;28;20214;-71
2022/12/14 06:20:06;;;;;;;16.07;8.93;;;;;;;;;;5028676;28;20198;-71
2022/12/14 06:22:32;;;;;;;16.23;8.57;;;;;;;;;;5026970;28;20217;-71
2022/12/14 06:24:57;;;;;;;17.37;9.07;;;;;;;;;;5034027;28;20701;-71
2022/12/14 06:27:22;;;;;;;17.23;9.03;;;;;;;;;;5034283;28;20698;-71
2022/12/14 06:29:47;;;;;;;18.43;8.60;;;;;;;;;;5032876;28;20680;-71
2022/12/14 06:32:12;;;;;;;19.80;9.10;;;;;;;;;;5033639;28;20193;-71
2022/12/14 06:34:38;;;;;;;20.73;9.20;;;;;;;;;;5034465;28;20166;-71
2022/12/14 06:37:03;;;;;;;19.17;10.03;;;;;;;;;;5034228;28;20194;-71
2022/12/14 06:39:28;;;;;;;18.47;9.60;;;;;;;;;;5034215;28;20632;-71
2022/12/14 06:41:53;;;;;;;17.40;9.30;;;;;;;;;;5034049;28;20190;-71
2022/12/14 06:44:18;;;;;;;19.77;9.83;;;;;;;;;;5033849;28;20200;-71
2022/12/14 06:46:44;;;;;;;17.83;9.30;;;;;;;;;;5029455;28;20178;-70
2022/12/14 06:49:13;;;;;;;18.23;9.80;;;;;;;;;;5031637;28;20176;-71
2022/12/14 06:51:39;;;;;;;21.10;9.20;;;;;;;;;;5029254;28;20185;-71
2022/12/14 06:54:04;;;;;;;19.07;10.23;;;;;;;;;;5037820;28;20327;-71
2022/12/14 06:56:30;;;;;;;19.93;8.97;;;;;;;;;;5031692;28;20186;-71
2022/12/14 06:58:55;;;;;;;16.93;9.60;;;;;;;;;;5035774;28;20182;-72
2022/12/14 07:01:22;;;;;;;19.80;9.17;;;;;;;;;;5027369;28;20174;-71
2022/12/14 07:03:58;;;;;;;19.50;10.27;;;;;;;;;;5033007;28;20695;-72
2022/12/14 07:06:24;;;;;;;21.97;9.93;;;;;;;;;;5035304;28;20180;-71
2022/12/14 07:08:51;;;;;;;19.17;9.43;;;;;;;;;;5031254;28;20201;-71
2022/12/14 07:11:17;;;;;;;13.60;8.53;;;;;;;;;;5033140;28;20174;-71
2022/12/14 07:13:42;;;;;;;14.83;8.30;;;;;;;;;;5033386;28;20610;-71
2022/12/14 07:16:11;;;;;;;16.47;9.30;;;;;;;;;;5033991;28;20183;-71
2022/12/14 07:18:36;;;;;;;19.17;8.87;;;;;;;;;;5034311;28;20201;-71
2022/12/14 07:21:08;;;;;;;15.60;9.13;;;;;;;;;;5034256;28;20189;-71
2022/12/14 07:23:36;;;;;;;16.07;8.27;;;;;;;;;;5032031;28;20192;-71
2022/12/14 07:26:03;;;;;;;13.47;8.10;;;;;;;;;;5033618;28;20206;-71
2022/12/14 07:28:29;;;;;;;20.33;9.13;;;;;;;;;;5031916;28;20300;-72
2022/12/14 07:30:55;;;;;;;19.40;8.70;;;;;;;;;;5032629;28;20257;-70
2022/12/14 07:33:20;;;;;;;17.67;8.30;;;;;;;;;;5032397;28;20178;-70
2022/12/14 07:35:46;;;;;;;17.30;7.90;;;;;;;;;;5034004;28;20170;-70
2022/12/14 07:38:11;;;;;;;14.53;7.90;;;;;;;;;;5033439;28;20202;-70
2022/12/14 07:40:36;;;;;;;14.00;8.37;;;;;;;;;;5032126;28;20784;-70
2022/12/14 07:43:01;;;;;;;14.80;8.40;;;;;;;;;;5034783;28;20206;-70
2022/12/14 07:45:27;;;;;;;17.47;8.70;;;;;;;;;;5035689;28;20166;-70
2022/12/14 07:47:52;;;;;;;14.43;8.47;;;;;;;;;;5033180;28;20190;-70
2022/12/14 07:50:17;;;;;;;13.57;7.87;;;;;;;;;;5025411;28;20208;-70
2022/12/14 07:52:42;;;;;;;16.57;8.50;;;;;;;;;;5029925;28;20273;-72
2022/12/14 07:55:08;;;;;;;15.03;8.13;;;;;;;;;;5031833;28;20170;-72
2022/12/14 07:57:33;;;;;;;18.17;8.87;;;;;;;;;;5032660;28;20309;-72
2022/12/14 07:59:58;;;;;;;13.93;7.83;;;;;;;;;;5031456;28;20178;-72
2022/12/14 08:02:23;;;;;;;14.27;7.67;;;;;;;;;;5032935;28;20265;-72
2022/12/14 08:04:49;;;;;;;13.43;7.73;;;;;;;;;;5036064;28;20212;-72
2022/12/14 08:07:14;;;;;;;14.87;8.53;;;;;;;;;;5037750;28;20193;-72
2022/12/14 08:09:39;;;;;;;19.97;8.77;;;;;;;;;;5032226;28;20175;-72
2022/12/14 08:12:04;;;;;;;15.73;8.70;;;;;;;;;;5018324;28;20171;-72
2022/12/14 08:14:29;;;;;;;14.07;7.23;;;;;;;;;;5026024;28;20600;-72
2022/12/14 08:16:55;;;;;;;16.13;7.87;;;;;;;;;;5033022;28;20203;-73
2022/12/14 08:19:20;;;;;;;10.27;6.97;;;;;;;;;;5014336;28;20277;-71
2022/12/14 08:21:45;;;;;;;14.83;7.20;;;;;;;;;;5023057;28;20676;-71
2022/12/14 08:24:11;;;;;;;15.17;8.03;;;;;;;;;;5027425;28;20205;-71
2022/12/14 08:26:36;;;;;;;15.50;8.27;;;;;;;;;;5030596;28;20189;-71
2022/12/14 08:29:02;;;;;;;15.33;8.63;;;;;;;;;;5028928;28;20185;-71
2022/12/14 08:31:28;;;;;;;17.60;7.30;;;;;;;;;;5031180;28;20179;-71
2022/12/14 08:33:53;;;;;;;15.97;7.97;;;;;;;;;;5030308;28;20553;-71
2022/12/14 08:36:20;;;;;;;15.00;8.40;;;;;;;;;;5031944;28;20214;-71
2022/12/14 08:38:50;;;;;;;14.07;7.17;;;;;;;;;;5031181;28;20741;-71
2022/12/14 08:41:15;;;;;;;15.83;7.63;;;;;;;;;;5027558;28;20193;-71
2022/12/14 08:43:40;;;;;;;16.17;7.47;;;;;;;;;;5027993;28;20299;-71
2022/12/14 08:46:06;;;;;;;15.43;8.03;;;;;;;;;;5031492;28;20171;-71
2022/12/14 08:48:32;;;;;;;12.80;8.00;;;;;;;;;;5031108;28;20278;-71
2022/12/14 08:51:08;;;;;;;11.53;7.30;;;;;;;;;;5030975;28;20190;-71
2022/12/14 08:53:33;;;;;;;15.67;7.50;;;;;;;;;;5031869;28;20607;-71
2022/12/14 08:56:03;;;;;;;13.67;8.03;;;;;;;;;;5020577;28;20191;-71
2022/12/14 08:58:28;;;;;;;13.80;6.70;;;;;;;;;;5030051;28;20224;-71
2022/12/14 09:01:14;;;;;;;13.43;7.30;;;;;;;;;;5027457;28;20182;-71
2022/12/14 09:03:40;;;;;;;15.27;7.80;;;;;;;;;;5031323;28;20722;-74
2022/12/14 09:06:07;;;;;;;12.33;6.73;;;;;;;;;;5031577;28;20177;-71
2022/12/14 09:08:33;;;;;;;16.60;8.03;;;;;;;;;;5035946;28;20198;-71
2022/12/14 09:10:58;;;;;;;12.97;7.37;;;;;;;;;;5035634;28;20714;-71
2022/12/14 09:13:23;;;;;;;16.47;7.73;;;;;;;;;;5030410;28;20311;-71
2022/12/14 09:15:59;;;;;;;14.67;7.23;;;;;;;;;;5027763;28;20178;-71
2022/12/14 09:18:25;;;;;;;16.33;8.37;;;;;;;;;;5030221;28;20252;-71
2022/12/14 09:20:53;;;;;;;14.77;7.40;;;;;;;;;;5030648;28;20177;-71
2022/12/14 09:23:18;;;;;;;12.13;7.70;;;;;;;;;;5029462;28;20205;-71
2022/12/14 09:25:44;;;;;;;17.87;8.90;;;;;;;;;;5030063;28;20240;-71
2022/12/14 09:28:09;;;;;;;14.30;7.57;;;;;;;;;;5029971;28;20209;-70
2022/12/14 09:30:34;;;;;;;13.33;7.47;;;;;;;;;;5026340;28;20561;-69
2022/12/14 09:32:59;;;;;;;10.33;6.37;;;;;;;;;;5027845;28;20182;-70
2022/12/14 09:35:24;;;;;;;9.73;6.90;;;;;;;;;;5031268;28;20186;-71
2022/12/14 09:37:50;;;;;;;12.33;7.17;;;;;;;;;;5031421;28;20206;-70
2022/12/14 09:40:16;;;;;;;12.03;7.43;;;;;;;;;;5031204;28;20625;-70
2022/12/14 09:42:52;;;;;;;13.93;6.73;;;;;;;;;;5030186;28;20261;-71
2022/12/14 09:45:24;;;;;;;10.50;6.77;;;;;;;;;;5025937;28;20665;-70
2022/12/14 09:47:49;;;;;;;11.70;7.07;;;;;;;;;;5021435;28;20209;-71
2022/12/14 09:50:16;;;;;;;10.83;7.27;;;;;;;;;;5022204;28;20186;-70
2022/12/14 09:52:43;;;;;;;9.07;6.90;;;;;;;;;;5037742;28;20186;-70
2022/12/14 09:55:15;;;;;;;11.33;7.23;;;;;;;;;;5035733;28;20219;-70
2022/12/14 09:57:40;;;;;;;13.20;7.20;;;;;;;;;;5035741;28;20190;-70
2022/12/14 10:00:24;;;;;;;11.27;6.83;;;;;;;;;;5031004;28;20185;-70
2022/12/14 10:02:49;;;;;;;13.10;7.10;;;;;;;;;;5021031;28;20170;-70
2022/12/14 10:05:33;;;;;;;15.73;6.53;;;;;;;;;;5035230;28;20266;-69
2022/12/14 10:08:21;;;;;;;17.17;7.23;;;;;;;;;;5039436;28;20205;-70
2022/12/14 10:10:47;;;;;;;11.40;6.40;;;;;;;;;;5029585;28;20183;-70
2022/12/14 10:13:31;;;;;;;12.80;6.80;;;;;;;;;;5032852;28;20193;-70
2022/12/14 10:16:08;;;;;;;13.03;7.27;;;;;;;;;;5024392;28;20191;-71
2022/12/14 10:18:34;;;;;;;12.77;7.43;;;;;;;;;;5033035;28;20210;-69
2022/12/14 10:21:05;;;;;;;12.30;6.70;;;;;;;;;;5033443;28;20300;-70
2022/12/14 10:23:30;;;;;;;13.23;7.43;;;;;;;;;;5032616;28;20542;-70
2022/12/14 10:26:07;;;;;;;11.50;6.90;;;;;;;;;;5034253;28;20163;-70
2022/12/14 10:28:36;;;;;;;12.60;7.10;;;;;;;;;;5033225;28;20241;-70
2022/12/14 10:31:01;;;;;;;14.90;7.63;;;;;;;;;;5032071;28;20793;-70
2022/12/14 10:33:30;;;;;;;12.03;6.73;;;;;;;;;;5026582;28;20202;-71
2022/12/14 10:36:13;;;;;;;9.53;6.67;;;;;;;;;;5032677;28;20714;-70
2022/12/14 10:38:42;;;;;;;9.30;6.87;;;;;;;;;;5034056;28;20288;-70
2022/12/14 10:41:14;;;;;;;11.93;7.07;;;;;;;;;;5033298;28;20703;-70
2022/12/14 10:43:46;;;;;;;12.33;6.40;;;;;;;;;;5033150;28;20170;-70
2022/12/14 10:46:47;;;;;;;12.90;7.37;;;;;;;;;;5034794;28;20273;-70
2022/12/14 10:49:20;;;;;;;9.70;6.50;;;;;;;;;;5011991;28;20174;-71
2022/12/14 10:51:49;;;;;;;11.33;6.70;;;;;;;;;;5018947;28;20187;-71
2022/12/14 10:54:24;;;;;;;10.47;7.33;;;;;;;;;;5028893;28;20280;-70
2022/12/14 10:56:49;;;;;;;11.23;6.77;;;;;;;;;;5026341;28;20193;-70
2022/12/14 10:59:15;;;;;;;11.53;6.63;;;;;;;;;;5033918;28;20170;-69
2022/12/14 11:01:40;;;;;;;10.37;6.73;;;;;;;;;;5033219;28;20170;-70
2022/12/14 11:04:15;;;;;;;13.73;8.37;;;;;;;;;;5034065;28;20184;-70
2022/12/14 11:06:40;;;;;;;11.70;7.17;;;;;;;;;;5033875;28;20555;-71
2022/12/14 11:09:18;;;;;;;11.93;7.60;;;;;;;;;;5032709;28;20185;-70
2022/12/14 11:11:44;;;;;;;11.33;7.10;;;;;;;;;;5024659;28;20209;-70
2022/12/14 11:14:13;;;;;;;12.87;7.40;;;;;;;;;;5032601;28;20722;-70
2022/12/14 11:16:40;;;;;;;11.87;7.57;;;;;;;;;;5031905;28;20179;-70
2022/12/14 11:19:14;;;;;;;10.20;6.87;;;;;;;;;;5033467;28;20170;-71
2022/12/14 11:21:39;;;;;;;14.50;7.43;;;;;;;;;;5032659;28;20215;-71
2022/12/14 11:24:05;;;;;;;10.70;6.93;;;;;;;;;;5033391;28;20210;-70
2022/12/14 11:26:38;;;;;;;11.13;7.50;;;;;;;;;;5033313;28;20189;-71
2022/12/14 11:29:05;;;;;;;13.00;7.40;;;;;;;;;;5032151;28;20187;-70
2022/12/14 11:31:35;;;;;;;10.87;6.70;;;;;;;;;;5031885;28;20175;-71
2022/12/14 11:34:01;;;;;;;10.70;6.90;;;;;;;;;;5033286;28;20197;-71
2022/12/14 11:36:33;;;;;;;12.53;7.40;;;;;;;;;;5033038;28;20213;-71
2022/12/14 11:39:04;;;;;;;10.07;6.17;;;;;;;;;;5033685;28;20178;-71
2022/12/14 11:41:33;;;;;;;13.40;7.87;;;;;;;;;;5031950;28;20183;-71
2022/12/14 11:44:03;;;;;;;10.40;6.87;;;;;;;;;;5033423;28;20182;-71
2022/12/14 11:46:47;;;;;;;7.47;5.77;;;;;;;;;;5023552;28;20186;-69
2022/12/14 11:49:21;;;;;;;11.60;5.93;;;;;;;;;;5032497;28;20186;-70
2022/12/14 11:51:53;;;;;;;9.57;5.97;;;;;;;;;;5024889;28;20198;-71
2022/12/14 11:54:18;;;;;;;12.47;6.63;;;;;;;;;;5033085;28;20438;-71
2022/12/14 11:56:43;;;;;;;12.73;7.50;;;;;;;;;;5025926;28;20166;-71
2022/12/14 11:59:13;;;;;;;12.73;7.60;;;;;;;;;;5034151;28;20186;-71
2022/12/14 12:01:38;;;;;;;11.10;7.10;;;;;;;;;;5032223;28;20576;-71
2022/12/14 12:04:03;;;;;;;12.27;7.30;;;;;;;;;;5026275;28;20273;-71
2022/12/14 12:06:28;;;;;;;13.63;7.87;;;;;;;;;;5030454;28;20269;-71
2022/12/14 12:08:55;;;;;;;12.27;7.67;;;;;;;;;;5031666;28;20555;-71
2022/12/14 12:11:22;;;;;;;12.23;7.67;;;;;;;;;;5032172;28;20178;-70
2022/12/14 12:13:52;;;;;;;11.97;9.07;;;;;;;;;;5032634;28;20234;-70
2022/12/14 12:16:19;;;;;;;14.47;9.07;;;;;;;;;;5029130;28;20629;-71
2022/12/14 12:18:53;;;;;;;13.03;9.23;;;;;;;;;;5033122;28;20562;-71
2022/12/14 12:21:19;;;;;;;14.63;8.83;;;;;;;;;;5026618;28;20214;-70
2022/12/14 12:24:03;;;;;;;11.73;8.70;;;;;;;;;;5025363;28;20609;-71
2022/12/14 12:26:31;;;;;;;12.27;8.70;;;;;;;;;;5030743;28;20184;-71
2022/12/14 12:29:00;;;;;;;12.40;7.63;;;;;;;;;;5032597;28;20672;-71
2022/12/14 12:31:30;;;;;;;14.70;8.00;;;;;;;;;;5031432;28;20189;-71
2022/12/14 12:33:58;;;;;;;12.57;8.33;;;;;;;;;;5031839;28;20205;-71
2022/12/14 12:36:24;;;;;;;11.63;8.73;;;;;;;;;;5031897;28;20190;-71
2022/12/14 12:38:59;;;;;;;12.67;7.67;;;;;;;;;;5032005;28;20198;-71
2022/12/14 12:41:43;;;;;;;13.67;7.70;;;;;;;;;;5031379;28;20249;-71
2022/12/14 12:44:21;;;;;;;11.70;8.57;;;;;;;;;;5031963;28;20186;-71
2022/12/14 12:47:10;;;;;;;12.67;7.53;;;;;;;;;;5025505;28;20170;-71
2022/12/14 12:49:35;;;;;;;11.33;7.70;;;;;;;;;;5024355;28;20194;-71
2022/12/14 12:52:03;;;;;;;13.63;8.47;;;;;;;;;;5030158;28;20182;-70
2022/12/14 12:54:54;;;;;;;12.83;9.73;;;;;;;;;;5031314;28;20198;-70
2022/12/14 12:57:20;;;;;;;15.03;9.50;;;;;;;;;;5028979;28;20206;-71
2022/12/14 12:59:49;;;;;;;11.87;8.37;;;;;;;;;;5031798;28;20229;-71
2022/12/14 13:02:17;;;;;;;12.73;8.40;;;;;;;;;;5031639;28;20170;-71
2022/12/14 13:04:43;;;;;;;12.07;7.93;;;;;;;;;;5029975;28;20518;-70
2022/12/14 13:07:14;;;;;;;13.07;7.60;;;;;;;;;;5031351;28;20205;-70
2022/12/14 13:09:43;;;;;;;10.97;7.07;;;;;;;;;;5031839;28;20178;-71
2022/12/14 13:12:34;;;;;;;9.97;6.70;;;;;;;;;;5030387;28;20671;-69
2022/12/14 13:15:01;;;;;;;11.67;6.90;;;;;;;;;;5025815;28;20221;-71
2022/12/14 13:17:36;;;;;;;9.83;6.07;;;;;;;;;;5031236;28;20202;-71
2022/12/14 13:20:03;;;;;;;8.90;6.50;;;;;;;;;;5031825;28;20190;-70
2022/12/14 13:22:29;;;;;;;11.13;6.40;;;;;;;;;;5030914;28;20279;-71
2022/12/14 13:24:56;;;;;;;8.80;5.77;;;;;;;;;;5031899;28;20177;-71
2022/12/14 13:27:33;;;;;;;12.73;6.63;;;;;;;;;;5029283;28;20873;-71
2022/12/14 13:29:58;;;;;;;13.90;6.53;;;;;;;;;;5031853;28;20174;-71
2022/12/14 13:32:33;;;;;;;10.30;6.43;;;;;;;;;;5028853;28;20179;-71
2022/12/14 13:35:01;;;;;;;8.73;5.93;;;;;;;;;;5025838;28;20213;-71
2022/12/14 13:37:38;;;;;;;10.30;6.00;;;;;;;;;;5027900;28;20202;-70
2022/12/14 13:40:27;;;;;;;11.63;7.80;;;;;;;;;;5027428;28;20523;-71
2022/12/14 13:42:52;;;;;;;9.60;6.00;;;;;;;;;;5030271;28;20170;-71
2022/12/14 13:45:22;;;;;;;11.10;6.37;;;;;;;;;;5032255;28;20177;-71
2022/12/14 13:47:50;;;;;;;8.37;6.07;;;;;;;;;;5031508;28;20190;-71
2022/12/14 13:50:25;;;;;;;8.57;5.87;;;;;;;;;;5031345;28;20252;-71
2022/12/14 13:52:53;;;;;;;10.37;6.03;;;;;;;;;;5028973;28;20169;-71
2022/12/14 13:55:30;;;;;;;9.37;6.33;;;;;;;;;;5024193;28;20668;-71
2022/12/14 13:58:11;;;;;;;8.90;6.27;;;;;;;;;;5030822;28;20679;-71
2022/12/14 14:00:47;;;;;;;7.63;5.40;;;;;;;;;;5030799;28;20721;-70
2022/12/14 14:03:31;;;;;;;11.37;7.20;;;;;;;;;;5029717;28;20189;-71
2022/12/14 14:05:59;;;;;;;12.70;7.13;;;;;;;;;;5028887;28;20581;-71
2022/12/14 14:08:32;;;;;;;11.57;6.90;;;;;;;;;;5031044;28;20280;-71
2022/12/14 14:10:57;;;;;;;9.63;6.23;;;;;;;;;;5030065;28;20178;-71
2022/12/14 14:13:28;;;;;;;9.30;6.27;;;;;;;;;;5030870;28;20702;-71
2022/12/14 14:15:58;;;;;;;12.33;7.43;;;;;;;;;;5030868;28;20636;-70
2022/12/14 14:18:25;;;;;;;8.97;6.20;;;;;;;;;;5031371;28;20766;-70
2022/12/14 14:21:10;;;;;;;9.50;6.20;;;;;;;;;;5026899;28;20320;-72
2022/12/14 14:23:36;;;;;;;12.30;7.03;;;;;;;;;;5028608;28;20194;-71
2022/12/14 14:26:11;;;;;;;12.90;6.93;;;;;;;;;;5029059;28;20183;-72
2022/12/14 14:28:36;;;;;;;9.13;6.93;;;;;;;;;;5032871;28;20217;-71
2022/12/14 14:31:02;;;;;;;10.77;7.03;;;;;;;;;;5029792;28;20185;-71
2022/12/14 14:33:30;;;;;;;12.97;7.57;;;;;;;;;;5031755;28;20201;-71
2022/12/14 14:36:08;;;;;;;12.10;8.07;;;;;;;;;;5030773;28;20171;-71
2022/12/14 14:38:34;;;;;;;12.47;7.50;;;;;;;;;;5033686;28;20679;-71
2022/12/14 14:41:01;;;;;;;14.37;7.67;;;;;;;;;;5029561;28;20194;-71
2022/12/14 14:43:38;;;;;;;12.90;7.23;;;;;;;;;;5038075;28;20265;-71
2022/12/14 14:46:05;;;;;;;14.77;7.93;;;;;;;;;;5030673;28;20233;-70
2022/12/14 14:48:33;;;;;;;10.97;7.57;;;;;;;;;;5031116;28;20213;-71
2022/12/14 14:51:03;;;;;;;11.27;7.43;;;;;;;;;;5033730;28;20229;-71
2022/12/14 14:53:37;;;;;;;12.23;7.20;;;;;;;;;;5041910;28;20210;-71
2022/12/14 14:56:05;;;;;;;14.67;8.47;;;;;;;;;;5035269;28;20181;-71